Weather at Chickasha Municipal Airport

Public forecast

Using degrees Fahrenheit for public forecast. Weather courtesy of forecast.io.

Current aviation weather report (METAR) for Chickasha Municipal Airport

2024/05/29 18:55 (retrieved 15 minutes ago)

KCHK 291855Z AUTO 13010KT 10SM CLR 28/16 A3005 RMK AO2 T02810163

Closest aviation forecast (TAF) to Chickasha Municipal Airport

Closest forecast is Will Rogers World Airport, 25.4 nm (47.0 km) NE.

2024/05/29 18:34 (retrieved 36 minutes ago)

TAF KOKC 291731Z 2918/3018 13009KT P6SM VCTS BKN100CB FM300000 12009KT P6SM BKN050 FM300800 12006KT P6SM BKN015 PROB30 3011/3017 4SM TSRA BR OVC008CB